createdAt,value
2019-04-04T00:01:00.829Z,97293.75
2019-04-04T00:03:29.098Z,97297.72
2019-04-04T00:05:57.413Z,97298.13
2019-04-04T00:08:25.695Z,97298.95
2019-04-04T00:10:53.947Z,97297.24
2019-04-04T00:13:22.198Z,97304.77
2019-04-04T00:15:50.475Z,97300.39
2019-04-04T00:18:18.723Z,97308.69
2019-04-04T00:20:47.001Z,97311.27
2019-04-04T00:23:15.265Z,97317.64
2019-04-04T00:25:43.521Z,97316.84
2019-04-04T00:28:14.618Z,97303.26
2019-04-04T00:30:41.757Z,97294.44
2019-04-04T00:33:09.983Z,97287.87
2019-04-04T00:35:38.245Z,97264.20
2019-04-04T00:38:06.955Z,97259.81
2019-04-04T00:40:35.917Z,97259.55
2019-04-04T00:43:04.137Z,97258.89
2019-04-04T00:45:32.420Z,97252.81
2019-04-04T00:48:01.096Z,97244.45
2019-04-04T00:50:30.653Z,97252.80
2019-04-04T00:52:58.885Z,97247.00
2019-04-04T00:55:27.164Z,97259.18
2019-04-04T00:57:55.398Z,97264.44
2019-04-04T01:00:24.072Z,97251.87
2019-04-04T01:02:52.884Z,97251.91
2019-04-04T01:05:21.160Z,97253.75
2019-04-04T01:07:49.386Z,97248.23
2019-04-04T01:10:18.935Z,97231.45
2019-04-04T01:12:47.783Z,97238.36
2019-04-04T01:15:16.734Z,97229.15
2019-04-04T01:17:44.964Z,97234.97
2019-04-04T01:20:13.228Z,97238.06
2019-04-04T01:22:41.469Z,97234.41
2019-04-04T01:25:09.736Z,97233.05
2019-04-04T01:27:37.958Z,97234.04
2019-04-04T01:30:07.002Z,97233.17
2019-04-04T01:32:35.367Z,97233.98
2019-04-04T01:35:05.370Z,97238.66
2019-04-04T01:37:33.604Z,97236.92
2019-04-04T01:40:02.226Z,97241.50
2019-04-04T01:42:30.987Z,97257.81
2019-04-04T01:44:59.268Z,97259.63
2019-04-04T01:47:27.503Z,97247.86
2019-04-04T01:49:55.780Z,97245.72
2019-04-04T01:52:24.007Z,97248.77
2019-04-04T01:54:52.252Z,97258.89
2019-04-04T01:57:20.519Z,97263.59
2019-04-04T01:59:48.759Z,97260.48
2019-04-04T02:02:18.484Z,97253.55
2019-04-04T02:04:46.839Z,97240.04
2019-04-04T02:07:15.113Z,97230.78
2019-04-04T02:09:43.570Z,97231.73
2019-04-04T02:12:11.905Z,97234.31
2019-04-04T02:14:42.740Z,97238.72
2019-04-04T02:17:10.144Z,97240.00
2019-04-04T02:19:38.376Z,97234.31
2019-04-04T02:22:06.648Z,97225.97
2019-04-04T02:24:34.879Z,97223.33
2019-04-04T02:27:04.923Z,97220.27
2019-04-04T02:29:33.120Z,97215.06
2019-04-04T02:32:03.052Z,97213.63
2019-04-04T02:34:31.284Z,97227.73
2019-04-04T02:36:59.561Z,97241.73
2019-04-04T02:39:27.807Z,97234.83
2019-04-04T02:41:56.109Z,97231.22
2019-04-04T02:44:24.349Z,97214.61
2019-04-04T02:46:52.637Z,97213.08
2019-04-04T02:49:20.877Z,97215.05
2019-04-04T02:51:49.137Z,97219.59
2019-04-04T02:54:17.383Z,97221.94
2019-04-04T02:56:45.651Z,97222.42
2019-04-04T02:59:13.899Z,97235.03
2019-04-04T03:01:42.168Z,97224.16
2019-04-04T03:04:13.652Z,97223.77
2019-04-04T03:06:40.417Z,97212.81
2019-04-04T03:09:09.990Z,97209.73
2019-04-04T03:11:38.701Z,97217.63
2019-04-04T03:14:06.967Z,97225.97
2019-04-04T03:16:35.205Z,97219.35
2019-04-04T03:19:03.506Z,97223.33
2019-04-04T03:21:31.741Z,97226.39
2019-04-04T03:24:00.017Z,97215.02
2019-04-04T03:26:28.243Z,97207.57
2019-04-04T03:28:56.523Z,97208.44
2019-04-04T03:31:24.889Z,97202.66
2019-04-04T03:33:53.164Z,97188.69
2019-04-04T03:36:21.432Z,97170.38
2019-04-04T03:38:49.695Z,97170.91
2019-04-04T03:41:17.948Z,97179.20
2019-04-04T03:43:48.850Z,97174.34
2019-04-04T03:46:16.175Z,97169.64
2019-04-04T03:48:44.419Z,97152.14
2019-04-04T03:51:12.725Z,97155.60
2019-04-04T03:53:42.608Z,97157.84
2019-04-04T03:56:10.858Z,97169.19
2019-04-04T03:58:39.172Z,97166.11
2019-04-04T04:01:12.045Z,97168.41
2019-04-04T04:03:37.398Z,97166.24
2019-04-04T04:06:08.753Z,97178.02
2019-04-04T04:08:35.835Z,97182.30
2019-04-04T04:11:05.783Z,97175.73
2019-04-04T04:13:34.097Z,97169.59
2019-04-04T04:16:03.713Z,97173.09
2019-04-04T04:18:32.190Z,97169.60
2019-04-04T04:21:00.428Z,97166.98
2019-04-04T04:23:28.706Z,97160.05
2019-04-04T04:25:56.956Z,97150.77
2019-04-04T04:28:25.230Z,97150.36
2019-04-04T04:30:53.484Z,97151.72
2019-04-04T04:33:21.757Z,97160.70
2019-04-04T04:35:50.009Z,97165.82
2019-04-04T04:38:18.277Z,97175.51
2019-04-04T04:40:47.365Z,97169.91
2019-04-04T04:43:16.463Z,97167.27
2019-04-04T04:45:45.239Z,97166.52
2019-04-04T04:48:13.542Z,97164.23
2019-04-04T04:50:41.777Z,97179.95
2019-04-04T04:53:10.066Z,97192.88
2019-04-04T04:55:38.295Z,97207.07
2019-04-04T04:58:09.828Z,97203.59
2019-04-04T05:00:36.573Z,97204.64
2019-04-04T05:03:04.819Z,97200.26
2019-04-04T05:05:33.233Z,97202.92
2019-04-04T05:08:01.479Z,97196.41
2019-04-04T05:10:32.948Z,97184.58
2019-04-04T05:13:01.193Z,97190.78
2019-04-04T05:15:30.436Z,97198.23
2019-04-04T05:17:59.429Z,97203.02
2019-04-04T05:20:29.859Z,97202.17
2019-04-04T05:22:57.691Z,97213.09
2019-04-04T05:25:25.935Z,97220.55
2019-04-04T05:27:54.229Z,97234.13
2019-04-04T05:30:22.473Z,97232.77
2019-04-04T05:32:53.112Z,97217.94
2019-04-04T05:35:20.790Z,97199.52
2019-04-04T05:37:49.050Z,97175.89
2019-04-04T05:40:17.287Z,97172.44
2019-04-04T05:42:45.579Z,97174.22
2019-04-04T05:45:14.276Z,97174.59
2019-04-04T05:47:43.404Z,97180.74
2019-04-04T05:50:12.089Z,97182.05
2019-04-04T05:52:40.483Z,97169.30
2019-04-04T05:55:10.819Z,97167.40
2019-04-04T05:57:38.694Z,97160.79
2019-04-04T06:00:07.999Z,97158.25
2019-04-04T06:02:36.242Z,97156.09
2019-04-04T06:05:06.165Z,97156.48
2019-04-04T06:07:36.404Z,97155.63
2019-04-04T06:10:06.164Z,97169.12
2019-04-04T06:12:37.296Z,97169.68
2019-04-04T06:15:05.744Z,97176.46
2019-04-04T06:17:33.988Z,97167.09
2019-04-04T06:20:02.338Z,97177.61
2019-04-04T06:22:30.578Z,97173.13
2019-04-04T06:24:59.341Z,97151.77
2019-04-04T06:27:28.282Z,97152.53
2019-04-04T06:29:56.555Z,97156.23
2019-04-04T06:32:24.800Z,97157.47
2019-04-04T06:34:53.034Z,97146.02
2019-04-04T06:37:21.318Z,97151.04
2019-04-04T06:39:49.556Z,97161.42
2019-04-04T06:42:17.837Z,97173.69
2019-04-04T06:44:46.077Z,97173.10
2019-04-04T06:47:16.450Z,97181.91
2019-04-04T06:49:45.816Z,97184.36
2019-04-04T06:52:16.249Z,97184.22
2019-04-04T06:54:44.273Z,97181.05
2019-04-04T06:57:12.605Z,97187.96
2019-04-04T06:59:42.989Z,97195.95
2019-04-04T07:02:10.811Z,97210.45
2019-04-04T07:04:39.083Z,97218.77
2019-04-04T07:07:07.323Z,97206.95
2019-04-04T07:09:37.241Z,97197.34
2019-04-04T07:12:06.769Z,97198.52
2019-04-04T07:14:45.441Z,97204.20
2019-04-04T07:17:08.293Z,97196.37
2019-04-04T07:19:35.452Z,97194.20
2019-04-04T07:22:03.702Z,97189.80
2019-04-04T07:24:31.939Z,97160.00
2019-04-04T07:27:00.226Z,97152.05
2019-04-04T07:29:28.464Z,97156.47
2019-04-04T07:31:56.985Z,97157.84
2019-04-04T07:34:25.237Z,97162.69
2019-04-04T07:36:53.519Z,97162.18
2019-04-04T07:39:21.753Z,97165.57
2019-04-04T07:41:50.035Z,97182.34
2019-04-04T07:44:18.276Z,97177.86
2019-04-04T07:46:46.554Z,97174.11
2019-04-04T07:49:14.871Z,97175.45
2019-04-04T07:51:43.148Z,97180.30
2019-04-04T07:54:11.404Z,97177.47
2019-04-04T07:56:39.704Z,97172.11
2019-04-04T07:59:07.951Z,97173.01
2019-04-04T08:01:36.184Z,97176.57
2019-04-04T08:04:06.633Z,97182.03
2019-04-04T08:06:34.456Z,97180.27
2019-04-04T08:09:04.388Z,97188.11
2019-04-04T08:11:32.625Z,97188.11
2019-04-04T08:14:01.274Z,97192.08
2019-04-04T08:16:29.684Z,97194.88
2019-04-04T08:18:58.040Z,97187.38
2019-04-04T08:21:26.290Z,97185.56
2019-04-04T08:23:54.530Z,97176.83
2019-04-04T08:26:22.826Z,97180.22
2019-04-04T08:28:51.087Z,97178.98
2019-04-04T08:31:19.345Z,97175.38
2019-04-04T08:33:47.596Z,97169.52
2019-04-04T08:36:15.858Z,97173.13
2019-04-04T08:38:44.089Z,97179.34
2019-04-04T08:41:12.365Z,97178.09
2019-04-04T08:43:40.610Z,97173.97
2019-04-04T08:46:08.887Z,97172.15
2019-04-04T08:48:37.133Z,97167.20
2019-04-04T08:51:05.371Z,97153.83
2019-04-04T08:53:39.787Z,97162.21
2019-04-04T08:56:03.734Z,97163.31
2019-04-04T08:58:32.017Z,97169.86
2019-04-04T09:01:00.269Z,97173.75
2019-04-04T09:03:28.537Z,97172.53
2019-04-04T09:05:56.773Z,97163.18
2019-04-04T09:08:25.041Z,97162.41
2019-04-04T09:10:53.290Z,97164.30
2019-04-04T09:13:21.565Z,97163.88
2019-04-04T09:15:49.813Z,97173.58
2019-04-04T09:18:18.095Z,97170.86
2019-04-04T09:20:46.336Z,97173.94
2019-04-04T09:23:14.610Z,97170.88
2019-04-04T09:25:43.216Z,97177.22
2019-04-04T09:28:11.510Z,97175.00
2019-04-04T09:30:39.758Z,97177.38
2019-04-04T09:33:08.006Z,97176.41
2019-04-04T09:35:36.289Z,97179.43
2019-04-04T09:38:04.515Z,97184.25
2019-04-04T09:40:32.788Z,97187.66
2019-04-04T09:43:01.027Z,97199.76
2019-04-04T09:45:29.336Z,97189.13
2019-04-04T09:47:57.618Z,97187.53
2019-04-04T09:50:25.852Z,97196.04
2019-04-04T09:52:54.134Z,97201.63
2019-04-04T09:55:22.368Z,97185.56
2019-04-04T09:57:50.644Z,97181.55
2019-04-04T10:00:20.051Z,97182.34
2019-04-04T10:02:48.323Z,97177.33
2019-04-04T10:05:16.566Z,97172.22
2019-04-04T10:07:44.840Z,97171.32
2019-04-04T10:10:13.154Z,97160.55
2019-04-04T10:12:41.425Z,97162.21
2019-04-04T10:15:09.657Z,97169.37
2019-04-04T10:17:37.939Z,97182.89
2019-04-04T10:20:09.741Z,97182.22
2019-04-04T10:22:38.017Z,97185.20
2019-04-04T10:25:06.253Z,97183.53
2019-04-04T10:27:34.497Z,97176.75
2019-04-04T10:30:02.843Z,97175.06
2019-04-04T10:32:31.100Z,97185.22
2019-04-04T10:34:59.367Z,97183.34
2019-04-04T10:37:27.607Z,97177.51
2019-04-04T10:39:55.887Z,97176.79
2019-04-04T10:42:24.117Z,97170.66
2019-04-04T10:44:52.427Z,97169.75
2019-04-04T10:47:20.668Z,97173.41
2019-04-04T10:49:48.913Z,97173.17
2019-04-04T10:52:17.181Z,97173.67
2019-04-04T10:54:45.415Z,97185.08
2019-04-04T10:57:13.681Z,97183.30
2019-04-04T10:59:41.922Z,97183.61
2019-04-04T11:02:10.194Z,97181.58
2019-04-04T11:04:38.510Z,97176.05
2019-04-04T11:07:06.818Z,97173.18
2019-04-04T11:09:41.716Z,97169.67
2019-04-04T11:12:05.025Z,97168.05
2019-04-04T11:14:33.307Z,97168.81
2019-04-04T11:17:01.547Z,97161.68
2019-04-04T11:19:31.445Z,97164.36
2019-04-04T11:21:59.868Z,97160.48
2019-04-04T11:24:28.142Z,97166.13
2019-04-04T11:26:56.384Z,97164.13
2019-04-04T11:29:24.660Z,97161.41
2019-04-04T11:31:52.900Z,97162.36
2019-04-04T11:34:21.169Z,97165.00
2019-04-04T11:36:49.478Z,97164.66
2019-04-04T11:39:18.293Z,97158.84
2019-04-04T11:41:46.585Z,97161.66
2019-04-04T11:44:14.814Z,97157.08
2019-04-04T11:46:43.080Z,97144.71
2019-04-04T11:49:11.317Z,97148.59
2019-04-04T11:51:39.578Z,97162.23
2019-04-04T11:54:07.827Z,97162.21
2019-04-04T11:56:36.100Z,97151.80
2019-04-04T11:59:04.336Z,97149.33
2019-04-04T12:01:37.048Z,97142.11
2019-04-04T12:04:05.289Z,97158.69
2019-04-04T12:06:33.574Z,97169.28
2019-04-04T12:09:01.815Z,97173.73
2019-04-04T12:11:30.053Z,97170.68
2019-04-04T12:13:58.321Z,97168.91
2019-04-04T12:16:26.569Z,97173.81
2019-04-04T12:18:54.850Z,97174.87
2019-04-04T12:21:23.085Z,97171.81
2019-04-04T12:23:51.675Z,97178.75
2019-04-04T12:26:20.086Z,97182.63
2019-04-04T12:28:48.328Z,97191.94
2019-04-04T12:31:16.596Z,97189.34
2019-04-04T12:33:44.864Z,97186.66
2019-04-04T12:36:24.079Z,97177.73
2019-04-04T12:38:43.099Z,97173.73
2019-04-04T12:41:11.387Z,97172.79
2019-04-04T12:43:39.636Z,97167.31
2019-04-04T12:46:07.916Z,97165.95
2019-04-04T12:48:36.154Z,97163.06
2019-04-04T12:51:04.437Z,97167.19
2019-04-04T12:53:32.990Z,97167.52
2019-04-04T12:56:01.644Z,97169.16
2019-04-04T12:58:29.886Z,97171.31
2019-04-04T13:00:58.134Z,97168.47
2019-04-04T13:03:26.406Z,97173.54
2019-04-04T13:05:54.640Z,97173.81
2019-04-04T13:08:22.908Z,97184.03
2019-04-04T13:10:51.150Z,97178.83
2019-04-04T13:13:19.420Z,97176.76
2019-04-04T13:15:47.659Z,97178.64
2019-04-04T13:18:15.944Z,97190.55
2019-04-04T13:20:44.179Z,97188.95
2019-04-04T13:23:12.431Z,97187.38
2019-04-04T13:25:40.720Z,97184.67
2019-04-04T13:28:08.968Z,97182.63
2019-04-04T13:30:37.240Z,97186.73
2019-04-04T13:33:05.483Z,97181.02
2019-04-04T13:35:33.756Z,97171.59
2019-04-04T13:38:02.063Z,97175.97
2019-04-04T13:40:30.351Z,97167.94
2019-04-04T13:42:58.599Z,97163.64
2019-04-04T13:45:26.873Z,97160.26
2019-04-04T13:47:56.037Z,97156.72
2019-04-04T13:50:24.349Z,97159.39
2019-04-04T13:52:52.592Z,97155.24
2019-04-04T13:55:20.841Z,97150.12
2019-04-04T13:57:49.124Z,97155.06
2019-04-04T14:00:17.374Z,97158.78
2019-04-04T14:02:45.651Z,97158.10
2019-04-04T14:05:14.485Z,97159.62
2019-04-04T14:07:43.903Z,97158.44
2019-04-04T14:10:12.475Z,97169.59
2019-04-04T14:12:40.754Z,97171.24
2019-04-04T14:15:09.757Z,97175.72
2019-04-04T14:17:38.026Z,97175.59
2019-04-04T14:20:10.860Z,97179.58
2019-04-04T14:22:39.142Z,97171.32
2019-04-04T14:25:08.058Z,97171.73
2019-04-04T14:27:36.303Z,97179.64
2019-04-04T14:30:05.914Z,97190.98
2019-04-04T14:32:34.158Z,97190.16
2019-04-04T14:35:02.419Z,97196.73
2019-04-04T14:37:30.654Z,97200.66
2019-04-04T14:39:58.918Z,97211.78
2019-04-04T14:42:27.164Z,97213.61
2019-04-04T14:44:55.460Z,97213.23
2019-04-04T14:47:23.702Z,97223.83
2019-04-04T14:49:51.960Z,97230.87
2019-04-04T14:52:20.686Z,97230.87
2019-04-04T14:54:49.021Z,97228.27
2019-04-04T14:57:17.286Z,97228.30
2019-04-04T14:59:45.528Z,97221.20
2019-04-04T15:02:13.802Z,97213.30
2019-04-04T15:04:42.052Z,97208.83
2019-04-04T15:07:10.327Z,97218.88
2019-04-04T15:09:38.565Z,97226.30
2019-04-04T15:12:06.856Z,97223.19
2019-04-04T15:14:35.090Z,97221.94
2019-04-04T15:17:03.476Z,97218.34
2019-04-04T15:19:31.714Z,97225.31
2019-04-04T15:21:59.987Z,97225.34
2019-04-04T15:24:28.225Z,97230.55
2019-04-04T15:26:56.494Z,97228.30
2019-04-04T15:29:24.771Z,97220.73
2019-04-04T15:31:52.995Z,97223.34
2019-04-04T15:34:21.272Z,97224.73
2019-04-04T15:36:49.501Z,97223.83
2019-04-04T15:39:17.777Z,97218.20
2019-04-04T15:41:46.032Z,97220.42
2019-04-04T15:44:14.304Z,97224.76
2019-04-04T15:46:42.547Z,97222.99
2019-04-04T15:49:10.848Z,97216.44
2019-04-04T15:51:39.088Z,97217.66
2019-04-04T15:54:07.360Z,97224.17
2019-04-04T15:56:35.610Z,97219.73
2019-04-04T15:59:03.881Z,97225.05
2019-04-04T16:01:32.126Z,97226.46
2019-04-04T16:04:00.404Z,97227.36
2019-04-04T16:06:28.654Z,97230.16
2019-04-04T16:08:56.933Z,97230.20
2019-04-04T16:11:25.172Z,97233.63
2019-04-04T16:13:53.522Z,97241.95
2019-04-04T16:16:21.769Z,97242.34
2019-04-04T16:18:50.039Z,97244.17
2019-04-04T16:21:18.320Z,97237.62
2019-04-04T16:23:46.541Z,97256.03
2019-04-04T16:26:14.782Z,97256.06
2019-04-04T16:28:43.062Z,97257.45
2019-04-04T16:31:11.332Z,97259.15
2019-04-04T16:33:39.668Z,97264.39
2019-04-04T16:36:08.092Z,97273.67
2019-04-04T16:38:36.376Z,97283.86
2019-04-04T16:41:04.621Z,97292.63
2019-04-04T16:43:33.102Z,97290.86
2019-04-04T16:46:01.349Z,97299.73
2019-04-04T16:48:29.628Z,97301.91
2019-04-04T16:50:57.867Z,97306.88
2019-04-04T16:53:26.146Z,97314.42
2019-04-04T16:55:54.383Z,97330.65
2019-04-04T16:58:22.658Z,97324.06
2019-04-04T17:00:50.895Z,97328.06
2019-04-04T17:03:19.185Z,97337.28
2019-04-04T17:05:47.415Z,97335.19
2019-04-04T17:08:15.675Z,97336.98
2019-04-04T17:10:44.301Z,97346.20
2019-04-04T17:13:12.545Z,97338.69
2019-04-04T17:15:40.837Z,97344.34
2019-04-04T17:18:09.072Z,97341.33
2019-04-04T17:20:37.349Z,97344.38
2019-04-04T17:23:05.605Z,97362.87
2019-04-04T17:25:33.887Z,97358.95
2019-04-04T17:28:02.335Z,97363.31
2019-04-04T17:30:31.355Z,97367.30
2019-04-04T17:32:59.988Z,97362.39
2019-04-04T17:35:28.340Z,97361.10
2019-04-04T17:37:56.625Z,97354.46
2019-04-04T17:40:24.947Z,97358.84
2019-04-04T17:42:53.298Z,97362.31
2019-04-04T17:45:21.836Z,97363.27
2019-04-04T17:47:50.112Z,97363.27
2019-04-04T17:50:19.429Z,97366.29
2019-04-04T17:52:48.263Z,97368.59
2019-04-04T17:55:16.543Z,97363.34
2019-04-04T17:57:44.803Z,97369.92
2019-04-04T18:00:13.211Z,97373.45
2019-04-04T18:02:41.466Z,97374.38
2019-04-04T18:05:10.210Z,97372.19
2019-04-04T18:07:38.450Z,97377.45
2019-04-04T18:10:06.826Z,97380.56
2019-04-04T18:12:40.532Z,97381.52
2019-04-04T18:15:08.026Z,97378.87
2019-04-04T18:17:36.269Z,97374.10
2019-04-04T18:20:06.564Z,97370.50
2019-04-04T18:22:34.801Z,97366.13
2019-04-04T18:25:03.081Z,97368.27
2019-04-04T18:27:31.310Z,97376.19
2019-04-04T18:29:59.589Z,97385.80
2019-04-04T18:32:27.829Z,97389.75
2019-04-04T18:34:56.103Z,97385.75
2019-04-04T18:37:24.364Z,97382.65
2019-04-04T18:39:52.635Z,97384.83
2019-04-04T18:42:20.883Z,97387.94
2019-04-04T18:44:49.116Z,97393.26
2019-04-04T18:47:17.399Z,97391.52
2019-04-04T18:49:45.645Z,97393.26
2019-04-04T18:52:13.943Z,97396.73
2019-04-04T18:54:42.198Z,97390.12
2019-04-04T18:57:13.070Z,97390.20
2019-04-04T18:59:40.511Z,97389.36
2019-04-04T19:02:08.784Z,97388.05
2019-04-04T19:04:37.033Z,97382.77
2019-04-04T19:07:05.325Z,97382.80
2019-04-04T19:09:33.639Z,97385.38
2019-04-04T19:12:01.924Z,97391.49
2019-04-04T19:14:30.160Z,97391.52
2019-04-04T19:16:58.444Z,97396.28
2019-04-04T19:19:26.697Z,97398.47
2019-04-04T19:21:54.970Z,97398.47
2019-04-04T19:24:23.216Z,97395.84
2019-04-04T19:26:51.498Z,97393.19
2019-04-04T19:29:19.734Z,97404.54
2019-04-04T19:31:48.018Z,97403.61
2019-04-04T19:34:16.270Z,97405.41
2019-04-04T19:36:44.572Z,97411.15
2019-04-04T19:39:17.252Z,97418.63
2019-04-04T19:41:45.493Z,97418.13
2019-04-04T19:44:13.857Z,97426.00
2019-04-04T19:46:42.093Z,97432.61
2019-04-04T19:49:10.355Z,97433.06
2019-04-04T19:51:38.622Z,97442.73
2019-04-04T19:54:06.891Z,97442.33
2019-04-04T19:56:35.132Z,97442.77
2019-04-04T19:59:03.422Z,97451.12
2019-04-04T20:01:31.664Z,97449.83
2019-04-04T20:03:59.992Z,97448.92
2019-04-04T20:06:28.230Z,97455.03
2019-04-04T20:08:56.510Z,97454.13
2019-04-04T20:11:24.761Z,97451.50
2019-04-04T20:13:53.018Z,97458.14
2019-04-04T20:16:21.302Z,97463.41
2019-04-04T20:18:49.542Z,97464.31
2019-04-04T20:21:17.831Z,97468.67
2019-04-04T20:23:46.136Z,97465.98
2019-04-04T20:26:14.433Z,97465.56
2019-04-04T20:28:42.627Z,97467.30
2019-04-04T20:31:10.890Z,97471.73
2019-04-04T20:33:39.129Z,97464.25
2019-04-04T20:36:07.417Z,97466.04
2019-04-04T20:38:35.705Z,97469.56
2019-04-04T20:41:04.047Z,97469.11
2019-04-04T20:43:42.777Z,97474.36
2019-04-04T20:46:02.833Z,97474.76
2019-04-04T20:48:31.089Z,97483.11
2019-04-04T20:50:59.365Z,97479.20
2019-04-04T20:53:27.625Z,97485.37
2019-04-04T20:55:55.940Z,97487.57
2019-04-04T20:58:24.167Z,97482.73
2019-04-04T21:00:52.429Z,97490.20
2019-04-04T21:03:20.695Z,97492.81
2019-04-04T21:05:48.938Z,97497.70
2019-04-04T21:08:17.218Z,97488.49
2019-04-04T21:10:45.468Z,97499.02
2019-04-04T21:13:13.748Z,97495.05
2019-04-04T21:15:41.996Z,97501.21
2019-04-04T21:18:10.276Z,97499.05
2019-04-04T21:20:38.516Z,97492.05
2019-04-04T21:23:06.790Z,97492.06
2019-04-04T21:25:35.034Z,97497.80
2019-04-04T21:28:03.334Z,97498.70
2019-04-04T21:30:31.587Z,97500.44
2019-04-04T21:32:59.858Z,97501.73
2019-04-04T21:35:28.102Z,97508.29
2019-04-04T21:37:56.384Z,97514.45
2019-04-04T21:40:24.626Z,97510.95
2019-04-04T21:42:52.926Z,97517.13
2019-04-04T21:45:21.173Z,97514.04
2019-04-04T21:47:49.449Z,97518.48
2019-04-04T21:50:17.693Z,97520.17
2019-04-04T21:52:45.988Z,97521.06
2019-04-04T21:55:14.242Z,97521.08
2019-04-04T21:57:42.481Z,97528.52
2019-04-04T22:00:10.789Z,97526.34
2019-04-04T22:02:39.060Z,97525.88
2019-04-04T22:05:08.304Z,97528.98
2019-04-04T22:07:36.587Z,97522.80
2019-04-04T22:10:07.024Z,97522.30
2019-04-04T22:12:35.292Z,97523.64
2019-04-04T22:15:04.936Z,97534.66
2019-04-04T22:17:33.201Z,97535.11
2019-04-04T22:20:01.518Z,97531.14
2019-04-04T22:22:29.796Z,97535.52
2019-04-04T22:24:58.070Z,97536.83
2019-04-04T22:27:26.374Z,97536.00
2019-04-04T22:29:54.641Z,97546.55
2019-04-04T22:32:22.942Z,97547.47
2019-04-04T22:34:51.219Z,97552.31
2019-04-04T22:37:19.532Z,97555.88
2019-04-04T22:39:47.805Z,97557.67
2019-04-04T22:42:16.239Z,97557.62
2019-04-04T22:44:44.507Z,97558.52
2019-04-04T22:47:12.819Z,97558.14
2019-04-04T22:49:41.087Z,97556.41
2019-04-04T22:52:09.405Z,97566.55
2019-04-04T22:54:37.678Z,97577.97
2019-04-04T22:57:06.004Z,97577.97
2019-04-04T22:59:34.264Z,97584.55
2019-04-04T23:02:02.545Z,97580.21
2019-04-04T23:04:30.853Z,97578.49
2019-04-04T23:06:59.119Z,97583.75
2019-04-04T23:09:27.419Z,97589.47
2019-04-04T23:11:55.695Z,97587.30
2019-04-04T23:14:24.002Z,97587.78
2019-04-04T23:16:52.273Z,97586.43
2019-04-04T23:19:20.560Z,97587.74
2019-04-04T23:21:48.838Z,97589.05
2019-04-04T23:24:17.144Z,97578.53
2019-04-04T23:26:45.415Z,97578.98
2019-04-04T23:29:13.699Z,97571.97
2019-04-04T23:31:42.030Z,97568.88
2019-04-04T23:34:10.313Z,97565.77
2019-04-04T23:36:38.610Z,97568.84
2019-04-04T23:39:07.354Z,97564.93
2019-04-04T23:41:35.665Z,97574.55
2019-04-04T23:44:03.939Z,97575.45
2019-04-04T23:46:32.253Z,97578.11
2019-04-04T23:49:00.556Z,97587.77
2019-04-04T23:51:28.837Z,97581.65
2019-04-04T23:53:57.347Z,97575.95
2019-04-04T23:56:25.618Z,97581.65
2019-04-04T23:58:53.925Z,97586.45
